createdAt,value
2018-04-25T17:50:42.764Z,12.88
2018-04-25T17:53:08.660Z,12.87
2018-04-25T17:55:34.536Z,12.74
2018-04-25T17:58:00.463Z,12.74
2018-04-25T18:00:26.340Z,12.63
2018-04-25T18:02:52.385Z,12.57
2018-04-25T18:05:18.327Z,12.52
2018-04-25T18:07:44.211Z,12.47
2018-04-25T18:10:10.582Z,12.33
2018-04-25T18:12:36.491Z,12.34
2018-04-25T18:15:02.544Z,12.19
2018-04-25T18:17:29.039Z,12.17
2018-04-25T18:19:55.502Z,12.17
2018-04-25T18:22:21.488Z,11.96
2018-04-25T18:24:47.408Z,12.04
2018-04-25T18:27:13.500Z,11.89
2018-04-25T18:29:39.379Z,11.92
2018-04-25T18:32:05.275Z,11.79
2018-04-25T18:34:31.253Z,11.79
2018-04-25T18:36:57.197Z,11.71
2018-04-25T18:39:23.299Z,11.61
2018-04-25T18:41:49.606Z,11.57
2018-04-25T18:44:15.514Z,11.39
2018-04-25T18:46:42.504Z,11.36
2018-04-25T18:49:08.454Z,11.32
2018-04-25T18:51:34.538Z,11.26
2018-04-25T18:54:01.522Z,11.26
2018-04-25T18:56:31.071Z,11.24
2018-04-25T18:58:57.146Z,11.29
2018-04-25T19:01:23.564Z,11.15
2018-04-25T19:03:50.708Z,11.11
2018-04-25T19:06:16.668Z,11.02
2018-04-25T19:08:42.567Z,11.01
2018-04-25T19:11:08.486Z,10.88
2018-04-25T19:13:34.464Z,10.96
2018-04-25T19:16:00.498Z,10.85
2018-04-25T19:18:26.432Z,10.73
2018-04-25T19:20:56.715Z,10.62
2018-04-25T19:23:22.764Z,10.52
2018-04-25T19:25:49.902Z,10.46
2018-04-25T19:28:15.928Z,10.36
2018-04-25T19:30:41.844Z,10.34
2018-04-25T19:33:09.659Z,10.22
2018-04-25T19:35:35.698Z,10.10
2018-04-25T19:38:01.601Z,9.97
2018-04-25T19:40:31.066Z,9.85
2018-04-25T19:42:58.855Z,9.78
2018-04-25T19:45:25.225Z,9.68
2018-04-25T19:47:51.295Z,9.60
2018-04-25T19:50:17.952Z,9.54
2018-04-25T19:52:45.459Z,9.41
2018-04-25T19:55:12.506Z,9.31
2018-04-25T19:57:39.296Z,9.27
2018-04-25T20:00:05.186Z,9.23
2018-04-25T20:02:34.117Z,9.12
2018-04-25T20:05:00.255Z,9.09
2018-04-25T20:07:26.143Z,9.05
2018-04-25T20:09:52.393Z,8.97
2018-04-25T20:12:18.291Z,8.98
2018-04-25T20:14:44.188Z,8.93
2018-04-25T20:17:10.284Z,8.84
2018-04-25T20:19:36.184Z,8.83
2018-04-25T20:22:02.079Z,8.76
2018-04-25T20:24:28.009Z,8.71
2018-04-25T20:26:53.892Z,8.72
2018-04-25T20:29:19.906Z,8.70
2018-04-25T20:31:45.844Z,8.63
2018-04-25T20:34:11.814Z,8.56
2018-04-25T20:36:37.693Z,8.52
2018-04-25T20:39:03.740Z,8.50
2018-04-25T20:41:29.783Z,8.46
2018-04-25T20:43:55.756Z,8.35
2018-04-25T20:46:21.669Z,8.33
2018-04-25T20:48:47.657Z,8.28
2018-04-25T20:51:13.640Z,8.23
2018-04-25T20:53:39.740Z,8.27
2018-04-25T20:56:05.620Z,8.17
2018-04-25T20:58:31.499Z,8.18
2018-04-25T21:00:57.581Z,8.09
2018-04-25T21:03:23.580Z,8.01
2018-04-25T21:05:49.589Z,7.96
2018-04-25T21:08:15.492Z,7.90
2018-04-25T21:10:41.380Z,7.83
2018-04-25T21:13:07.268Z,7.83
2018-04-25T21:15:33.604Z,7.81
2018-04-25T21:17:59.711Z,7.78
2018-04-25T21:20:25.571Z,7.82
2018-04-25T21:22:52.395Z,7.77
2018-04-25T21:25:18.268Z,7.77
2018-04-25T21:27:44.151Z,7.71
2018-04-25T21:30:10.219Z,7.68
2018-04-25T21:32:36.105Z,7.61
2018-04-25T21:35:02.001Z,7.56
2018-04-25T21:37:27.951Z,7.61
2018-04-25T21:39:53.836Z,7.59
2018-04-25T21:42:19.871Z,7.55
2018-04-25T21:44:45.799Z,7.56
2018-04-25T21:47:11.700Z,7.59
2018-04-25T21:49:37.593Z,7.56
2018-04-25T21:52:03.537Z,7.55
2018-04-25T21:54:29.601Z,7.47
2018-04-25T21:56:55.495Z,7.56
2018-04-25T21:59:21.422Z,7.45
2018-04-25T22:01:47.316Z,7.38
2018-04-25T22:04:13.199Z,7.30
2018-04-25T22:06:39.315Z,7.21
2018-04-25T22:09:05.211Z,7.27
2018-04-25T22:11:31.087Z,7.25
2018-04-25T22:13:57.321Z,7.23
2018-04-25T22:16:23.207Z,7.16
2018-04-25T22:18:50.057Z,7.15
2018-04-25T22:21:16.002Z,7.06
2018-04-25T22:23:41.885Z,7.06
2018-04-25T22:26:07.783Z,7.04
2018-04-25T22:28:33.700Z,6.94
2018-04-25T22:30:59.781Z,7.01
2018-04-25T22:33:25.670Z,7.09
2018-04-25T22:35:51.577Z,7.22
2018-04-25T22:38:17.489Z,7.34
2018-04-25T22:40:43.383Z,7.45
2018-04-25T22:43:09.476Z,7.60
2018-04-25T22:45:35.347Z,7.68
2018-04-25T22:48:01.224Z,7.78
2018-04-25T22:50:27.147Z,7.90
2018-04-25T22:52:53.031Z,7.93
2018-04-25T22:55:19.068Z,8.06
2018-04-25T22:57:44.989Z,8.17
2018-04-25T23:00:10.881Z,8.31
2018-04-25T23:02:36.811Z,8.28
2018-04-25T23:05:02.736Z,8.24
2018-04-25T23:07:28.744Z,8.17
2018-04-25T23:09:54.639Z,8.12
2018-04-25T23:12:20.572Z,7.97
2018-04-25T23:14:46.459Z,7.90
2018-04-25T23:17:12.339Z,7.83
2018-04-25T23:19:38.401Z,7.78
2018-04-25T23:22:04.293Z,7.69
2018-04-25T23:24:30.176Z,7.69
2018-04-25T23:26:56.111Z,7.75
2018-04-25T23:29:22.006Z,7.76
2018-04-25T23:31:48.020Z,7.80
2018-04-25T23:34:13.934Z,7.87
2018-04-25T23:36:39.828Z,7.91
2018-04-25T23:39:05.707Z,7.90
2018-04-25T23:41:31.650Z,7.93
2018-04-25T23:43:57.674Z,8.03
2018-04-25T23:46:23.579Z,8.08
2018-04-25T23:48:49.838Z,8.24
2018-04-25T23:51:15.740Z,8.23
2018-04-25T23:53:41.610Z,8.28
2018-04-25T23:56:07.681Z,8.35
2018-04-25T23:58:33.557Z,8.40
